Temple, GA

8:37 PM EDT on April 23, 2017 (GMT -0400)
Amy Ridge | | Change Station

Elev 1188 ft 33.74 °N, 85.05 °W | Updated 9 seconds ago

Overcast
Overcast
59.7 °F
Feels Like 59.7 °F
N
0.0
Wind Variable Wind from ESE
Gusts 0.0 mph

Today
High -- | Low -- °F
--% Chance of Precip.
Yesterday
High -- | Low -- °F
Precip. -- in
Pressure 29.81 in
Visibility 10.0 miles
Clouds Scattered Clouds 2900 ft
Mostly Cloudy 4900 ft
Mostly Cloudy 7000 ft
Dew Point 54 °F
Humidity 82%
Rainfall 0.46 in
Snow Depth Not available.
6:59 AM 8:17 PM
Waning Crescent, 9% visible
METAR KCTJ 240015Z AUTO 33007KT 10SM SCT029 BKN049 BKN070 16/12 A2981 RMK AO2 T01560122
Pressure 29.81 in
Visibility 10.0 miles
Clouds Scattered Clouds 2900 ft
Mostly Cloudy 4900 ft
Mostly Cloudy 7000 ft
Dew Point 54 °F
Humidity 82%
Rainfall 0.46 in
Snow Depth Not available.
6:59 AM 8:17 PM
Waning Crescent, 9% visible
METAR KCTJ 240015Z AUTO 33007KT 10SM SCT029 BKN049 BKN070 16/12 A2981 RMK AO2 T01560122

Get Severe Weather Alerts

Thanks for signing up!

Be on the lookout for a verification email in your inbox.

You'll start receiving the daily forecast at 8 AM.

×

10-Day Weather Forecast

Almanac

Astronomy

Apr. 23, 2017 Rise Set
Actual Time
Civil Twilight
Nautical Twilight
Astronomical Twilight
Moon
Length of Visible Light
Length of Day
Tomorrow will be .
, % of the Moon is Illuminated

Today's Extremes

State Highs State Lows

Community

WunderPhotos

WunderBlog® & News

Nearby

Air Quality

  Air Quality AQ Index Pollutant
Not available.

Snow Depth

Station Depth Elevation

Earthquake Activity

City Distance Mag. Time & Date
Minimum magnitude displayed is 2.5.

Coastal Water Temperatures

Place Temperature

Stations

Nearby Weather Stations

Station Location Temp. Windchill Dew Point Humidity Wind Precip. Elev Updated Type
                   

Watches & Warnings

There are currently no watches in effect.